Time;durP1;ratioP1;P1;durP2;ratioP2;P2;SDS_P1;SDS_P2;PMS_P1;PMS_P2;Temp;Humidity;BMP_temperature;BMP_pressure;BME280_temperature;BME280_humidity;BME280_pressure;Samples;Min_cycle;Max_cycle;Signal;HPM_P1;HPM_P2
2021/04/16 00:00:10;;;;;;;8.93;8.00;;;1.00;1.00;;;;;;5071374;28;20520;-43
2021/04/16 00:02:37;;;;;;;9.67;8.50;;;1.10;1.00;;;;;;5059822;28;20816;-42
2021/04/16 00:05:04;;;;;;;10.17;7.83;;;1.20;1.00;;;;;;5071513;28;20469;-42
2021/04/16 00:07:33;;;;;;;9.00;7.20;;;1.20;1.00;;;;;;5059691;28;20466;-42
2021/04/16 00:10:01;;;;;;;8.23;7.43;;;1.10;1.00;;;;;;5084881;28;20518;-43
2021/04/16 00:12:27;;;;;;;9.10;7.10;;;1.00;1.00;;;;;;5081789;28;20492;-47
2021/04/16 00:14:58;;;;;;;8.67;7.27;;;1.00;1.00;;;;;;5083658;28;20828;-46
2021/04/16 00:17:24;;;;;;;11.90;7.27;;;1.00;1.00;;;;;;5073909;28;20462;-42
2021/04/16 00:19:52;;;;;;;9.17;7.43;;;1.00;1.00;;;;;;5077572;28;20506;-42
2021/04/16 00:22:18;;;;;;;9.73;7.53;;;1.00;1.00;;;;;;5072540;28;20458;-45
2021/04/16 00:24:45;;;;;;;13.87;8.00;;;1.10;1.00;;;;;;5076488;28;20897;-42
2021/04/16 00:27:14;;;;;;;9.33;8.33;;;1.10;1.00;;;;;;5064433;28;20469;-44
2021/04/16 00:29:41;;;;;;;10.10;8.10;;;1.20;1.00;;;;;;5069677;28;20465;-44
2021/04/16 00:32:09;;;;;;;7.77;6.83;;;1.30;1.00;;;;;;5059612;28;20955;-42
2021/04/16 00:34:35;;;;;;;9.40;8.40;;;1.30;1.00;;;;;;5078205;28;20892;-47
2021/04/16 00:37:02;;;;;;;11.93;8.60;;;1.40;1.00;;;;;;5065773;28;20778;-41
2021/04/16 00:39:29;;;;;;;11.20;9.17;;;1.40;1.00;;;;;;5077352;28;20984;-45
2021/04/16 00:41:55;;;;;;;11.60;8.80;;;1.40;1.00;;;;;;5067889;28;20473;-43
2021/04/16 00:44:24;;;;;;;12.20;8.53;;;1.50;1.00;;;;;;5069604;28;20508;-42
2021/04/16 00:46:56;;;;;;;13.80;9.60;;;1.50;1.00;;;;;;5060957;28;20488;-47
2021/04/16 00:49:27;;;;;;;14.57;9.43;;;1.50;1.00;;;;;;5079456;28;20510;-44
2021/04/16 00:51:58;;;;;;;10.60;7.80;;;1.50;1.00;;;;;;5081475;28;20464;-45
2021/04/16 00:54:27;;;;;;;8.97;7.60;;;1.50;1.00;;;;;;5084121;28;20525;-42
2021/04/16 00:56:55;;;;;;;11.20;7.00;;;1.50;1.00;;;;;;5060307;28;20470;-43
2021/04/16 00:59:28;;;;;;;9.20;7.30;;;1.60;1.00;;;;;;5074750;28;20518;-45
2021/04/16 01:01:58;;;;;;;8.10;6.90;;;1.60;1.00;;;;;;5040019;28;20474;-42
2021/04/16 01:04:26;;;;;;;12.07;9.10;;;1.70;1.00;;;;;;5047236;28;20674;-42
2021/04/16 01:06:53;;;;;;;10.83;8.33;;;1.70;1.00;;;;;;5031698;28;20466;-43
2021/04/16 01:09:20;;;;;;;15.57;7.83;;;1.70;1.00;;;;;;5038870;28;20459;-42
2021/04/16 01:11:47;;;;;;;8.90;7.97;;;1.80;1.00;;;;;;5036931;28;20489;-42
2021/04/16 01:14:14;;;;;;;11.60;7.00;;;1.80;1.00;;;;;;5037603;28;20799;-42
2021/04/16 01:16:41;;;;;;;9.00;6.93;;;1.80;1.00;;;;;;5034780;28;20460;-42
2021/04/16 01:19:16;;;;;;;9.33;7.30;;;1.90;1.00;;;;;;5035887;28;20459;-46
2021/04/16 01:21:50;;;;;;;10.23;7.27;;;1.90;1.00;;;;;;5019669;28;20467;-44
2021/04/16 01:24:26;;;;;;;7.70;6.60;;;1.90;1.00;;;;;;5020041;28;20460;-43
2021/04/16 01:26:54;;;;;;;8.97;7.17;;;1.90;1.00;;;;;;5019582;28;20786;-42
2021/04/16 01:29:23;;;;;;;9.10;7.03;;;1.90;1.00;;;;;;5030043;28;20463;-42
2021/04/16 01:31:51;;;;;;;7.30;6.60;;;1.90;1.00;;;;;;5039397;28;20463;-44
2021/04/16 01:34:20;;;;;;;10.90;7.60;;;1.90;1.00;;;;;;5034671;28;20486;-45
2021/04/16 01:36:50;;;;;;;9.10;7.20;;;1.90;1.00;;;;;;5033658;28;20462;-43
2021/04/16 01:39:16;;;;;;;8.97;6.77;;;1.90;1.00;;;;;;5022765;28;20892;-44
2021/04/16 01:41:44;;;;;;;8.80;8.00;;;1.90;1.00;;;;;;5038360;28;20517;-43
2021/04/16 01:44:16;;;;;;;8.90;7.10;;;1.90;1.00;;;;;;5018091;28;20463;-43
2021/04/16 01:46:54;;;;;;;15.03;7.60;;;2.00;1.00;;;;;;5023009;28;20471;-43
2021/04/16 01:49:21;;;;;;;9.40;7.87;;;2.00;1.00;;;;;;5019368;28;20922;-48
2021/04/16 01:51:47;;;;;;;7.83;7.07;;;2.00;1.00;;;;;;5026256;28;20497;-43
2021/04/16 01:54:19;;;;;;;11.20;7.90;;;2.00;1.00;;;;;;5039147;28;20530;-42
2021/04/16 01:56:49;;;;;;;9.03;7.67;;;2.10;1.00;;;;;;5033472;28;20472;-42
2021/04/16 01:59:17;;;;;;;7.17;6.50;;;2.10;1.00;;;;;;5039793;28;20463;-47
2021/04/16 02:01:44;;;;;;;11.70;7.03;;;2.10;1.00;;;;;;5070969;28;20490;-43
2021/04/16 02:04:13;;;;;;;9.93;7.57;;;2.10;1.00;;;;;;5070984;28;21066;-43
2021/04/16 02:06:43;;;;;;;10.57;6.97;;;2.10;1.00;;;;;;5083952;28;20954;-43
2021/04/16 02:09:13;;;;;;;10.93;6.90;;;2.10;1.00;;;;;;5074724;28;20463;-43
2021/04/16 02:11:42;;;;;;;8.20;7.13;;;2.20;1.00;;;;;;5078067;28;20518;-42
2021/04/16 02:14:10;;;;;;;9.30;7.27;;;2.20;1.00;;;;;;5073340;28;20536;-42
2021/04/16 02:16:37;;;;;;;8.23;7.43;;;2.30;1.00;;;;;;5078363;28;20465;-43
2021/04/16 02:19:04;;;;;;;9.17;7.40;;;2.30;1.00;;;;;;5073359;28;20462;-44
2021/04/16 02:21:33;;;;;;;7.07;6.37;;;2.40;1.00;;;;;;5078568;28;20543;-42
2021/04/16 02:24:00;;;;;;;7.73;6.93;;;2.40;1.00;;;;;;5073703;28;20472;-42
2021/04/16 02:26:27;;;;;;;8.47;7.67;;;2.40;1.00;;;;;;5078329;28;20849;-42
2021/04/16 02:28:54;;;;;;;8.63;7.73;;;2.40;1.00;;;;;;5072951;28;20950;-43
2021/04/16 02:31:21;;;;;;;8.27;7.47;;;2.40;1.00;;;;;;5078201;28;20436;-42
2021/04/16 02:33:48;;;;;;;9.40;6.90;;;2.40;1.00;;;;;;5062797;28;20490;-42
2021/04/16 02:36:15;;;;;;;9.20;8.23;;;2.40;1.00;;;;;;5057657;28;20462;-44
2021/04/16 02:38:41;;;;;;;10.03;7.20;;;2.40;1.00;;;;;;5067427;28;20886;-43
2021/04/16 02:41:08;;;;;;;8.43;7.60;;;2.40;1.00;;;;;;5074796;28;20463;-46
2021/04/16 02:43:35;;;;;;;8.60;7.70;;;2.50;1.00;;;;;;5076548;28;20468;-42
2021/04/16 02:46:02;;;;;;;8.03;7.23;;;2.50;1.00;;;;;;5071064;28;20454;-43
2021/04/16 02:48:30;;;;;;;8.83;7.93;;;2.50;1.00;;;;;;5058528;28;20458;-42
2021/04/16 02:50:56;;;;;;;9.13;7.27;;;2.50;1.00;;;;;;5058838;28;20470;-45
2021/04/16 02:53:23;;;;;;;8.17;7.10;;;2.50;1.00;;;;;;5057854;28;20494;-44
2021/04/16 02:55:49;;;;;;;9.00;7.30;;;2.60;1.00;;;;;;5061094;28;20740;-44
2021/04/16 02:58:16;;;;;;;9.00;8.10;;;2.60;1.00;;;;;;5056448;28;20829;-43
2021/04/16 03:00:42;;;;;;;12.77;7.70;;;2.60;1.00;;;;;;5060109;28;20482;-45
2021/04/16 03:03:09;;;;;;;9.17;8.20;;;2.60;1.00;;;;;;5060867;28;20484;-43
2021/04/16 03:05:36;;;;;;;9.23;7.50;;;2.70;1.00;;;;;;5073236;28;20473;-43
2021/04/16 03:08:05;;;;;;;10.33;8.13;;;2.70;1.00;;;;;;5078205;28;20465;-42
2021/04/16 03:10:35;;;;;;;9.23;8.20;;;2.70;1.00;;;;;;5072793;28;20461;-42
2021/04/16 03:13:04;;;;;;;8.73;7.87;;;2.70;1.00;;;;;;5075298;28;20486;-42
2021/04/16 03:15:32;;;;;;;9.83;7.70;;;2.70;1.00;;;;;;5074245;28;20466;-43
2021/04/16 03:17:58;;;;;;;9.30;7.97;;;2.80;1.00;;;;;;5072309;28;20485;-42
2021/04/16 03:20:25;;;;;;;11.03;7.50;;;2.80;1.00;;;;;;5057856;28;20461;-42
2021/04/16 03:22:53;;;;;;;8.40;7.53;;;2.80;1.00;;;;;;5070929;28;20774;-43
2021/04/16 03:25:19;;;;;;;10.70;9.00;;;2.80;1.00;;;;;;5076841;28;20515;-43
2021/04/16 03:27:46;;;;;;;8.93;8.13;;;2.70;1.00;;;;;;5068615;28;20462;-44
2021/04/16 03:30:16;;;;;;;11.03;7.90;;;2.70;1.00;;;;;;5070699;28;20564;-44
2021/04/16 03:32:43;;;;;;;14.70;7.50;;;2.70;1.00;;;;;;5073214;28;20485;-44
2021/04/16 03:35:11;;;;;;;9.20;7.77;;;2.70;1.00;;;;;;5085125;28;20506;-42
2021/04/16 03:37:37;;;;;;;10.70;7.50;;;2.70;1.00;;;;;;5056390;28;20477;-41
2021/04/16 03:40:07;;;;;;;12.93;8.20;;;2.80;1.00;;;;;;5057239;28;20473;-42
2021/04/16 03:42:35;;;;;;;9.70;8.80;;;2.70;1.00;;;;;;5056325;28;20441;-42
2021/04/16 03:45:01;;;;;;;8.53;7.63;;;2.70;1.00;;;;;;5076779;28;20460;-46
2021/04/16 03:47:30;;;;;;;14.40;8.73;;;2.70;1.00;;;;;;5073036;28;20885;-45
2021/04/16 03:49:56;;;;;;;8.57;7.67;;;2.70;1.00;;;;;;5078078;28;20460;-41
2021/04/16 03:52:24;;;;;;;11.67;7.37;;;2.70;1.00;;;;;;5086171;28;20469;-44
2021/04/16 03:54:51;;;;;;;11.33;8.17;;;2.70;1.00;;;;;;5085338;28;20492;-42
2021/04/16 03:57:19;;;;;;;14.63;9.50;;;2.60;1.00;;;;;;5077341;28;20461;-42
2021/04/16 03:59:45;;;;;;;10.60;9.20;;;2.70;1.00;;;;;;5070939;28;20462;-47
2021/04/16 04:02:12;;;;;;;10.30;9.30;;;2.60;1.00;;;;;;5057174;28;20462;-42
2021/04/16 04:04:39;;;;;;;8.73;7.30;;;2.60;1.00;;;;;;5069189;28;20460;-43
2021/04/16 04:07:06;;;;;;;11.07;8.40;;;2.50;1.00;;;;;;5078153;28;20902;-43
2021/04/16 04:09:34;;;;;;;10.00;8.40;;;2.40;1.00;;;;;;5069537;28;20466;-44
2021/04/16 04:12:00;;;;;;;10.90;8.50;;;2.30;1.00;;;;;;5060918;28;20523;-42
2021/04/16 04:14:28;;;;;;;10.27;9.23;;;2.20;1.00;;;;;;5073422;28;20485;-43
2021/04/16 04:16:57;;;;;;;11.00;8.80;;;2.20;1.00;;;;;;5081205;28;20818;-42
2021/04/16 04:19:25;;;;;;;9.23;8.00;;;2.10;1.00;;;;;;5076291;28;20508;-43
2021/04/16 04:21:53;;;;;;;9.57;8.23;;;2.10;1.00;;;;;;5078586;28;20461;-43
2021/04/16 04:24:20;;;;;;;14.67;8.60;;;2.00;1.00;;;;;;5078110;28;20465;-42
2021/04/16 04:26:47;;;;;;;9.30;8.40;;;2.00;1.00;;;;;;5078714;28;20436;-42
2021/04/16 04:29:16;;;;;;;10.50;9.10;;;1.90;1.00;;;;;;5060511;28;20757;-43
2021/04/16 04:31:47;;;;;;;12.53;9.80;;;1.90;1.00;;;;;;5063687;28;20559;-41
2021/04/16 04:34:15;;;;;;;10.87;8.90;;;2.00;1.00;;;;;;5080620;28;20499;-43
2021/04/16 04:36:41;;;;;;;10.53;9.43;;;1.90;1.00;;;;;;5072770;28;20458;-43
2021/04/16 04:39:08;;;;;;;10.23;9.23;;;1.90;1.00;;;;;;5070600;28;20454;-42
2021/04/16 04:41:36;;;;;;;9.90;9.00;;;1.90;3.50;;;;;;5074855;28;20912;-42
2021/04/16 04:44:03;;;;;;;10.93;9.10;;;1.90;3.40;;;;;;5080214;28;20461;-42
2021/04/16 04:46:30;;;;;;;14.53;9.70;;;1.90;21.20;;;;;;5073953;28;20506;-44
2021/04/16 04:48:58;;;;;;;13.27;9.37;;;1.90;19.00;;;;;;5060589;28;20441;-42
2021/04/16 04:51:24;;;;;;;11.30;9.60;;;1.90;23.70;;;;;;5067766;28;20518;-43
2021/04/16 04:53:53;;;;;;;10.90;9.70;;;1.90;22.90;;;;;;5079994;28;20497;-44
2021/04/16 04:56:22;;;;;;;10.83;9.73;;;2.00;12.00;;;;;;5080326;28;20530;-44
2021/04/16 04:58:49;;;;;;;11.40;9.00;;;2.00;15.00;;;;;;5079911;28;20816;-42
2021/04/16 05:01:16;;;;;;;12.47;10.23;;;2.00;38.40;;;;;;5079927;28;20887;-49
2021/04/16 05:03:42;;;;;;;11.90;9.97;;;2.00;14.00;;;;;;5076698;28;20819;-43
2021/04/16 05:06:10;;;;;;;12.37;10.70;;;1.90;22.00;;;;;;5088540;28;20587;-43
2021/04/16 05:08:36;;;;;;;11.50;10.00;;;2.00;38.00;;;;;;5079655;28;20634;-43
2021/04/16 05:11:04;;;;;;;11.13;10.03;;;2.00;31.50;;;;;;5079394;28;20920;-43
2021/04/16 05:13:31;;;;;;;12.00;9.03;;;2.10;38.50;;;;;;5078500;28;20570;-41
2021/04/16 05:15:57;;;;;;;13.30;9.93;;;2.10;33.60;;;;;;5079368;28;20472;-43
2021/04/16 05:18:23;;;;;;;14.33;11.00;;;2.10;16.10;;;;;;5078984;28;20511;-41
2021/04/16 05:20:50;;;;;;;16.60;12.20;;;2.20;8.30;;;;;;5078471;28;20884;-42
2021/04/16 05:23:17;;;;;;;14.27;10.83;;;2.20;5.70;;;;;;5079622;28;20460;-43
2021/04/16 05:25:44;;;;;;;15.07;10.60;;;2.30;6.80;;;;;;5079337;28;20518;-42
2021/04/16 05:28:11;;;;;;;13.20;10.77;;;2.30;1.00;;;;;;5079568;28;20594;-41
2021/04/16 05:30:37;;;;;;;13.93;10.30;;;2.40;1.00;;;;;;5079293;28;20522;-42
2021/04/16 05:33:10;;;;;;;11.63;10.20;;;2.50;1.00;;;;;;5079841;28;20489;-43
2021/04/16 05:35:38;;;;;;;15.30;10.50;;;2.50;1.00;;;;;;5079213;28;20460;-44
2021/04/16 05:38:05;;;;;;;11.13;9.57;;;2.60;1.00;;;;;;5079592;28;20843;-43
2021/04/16 05:40:36;;;;;;;12.20;10.60;;;2.70;1.00;;;;;;5067488;28;20458;-43
2021/04/16 05:43:06;;;;;;;17.10;12.23;;;2.80;1.00;;;;;;5059446;28;20477;-43
2021/04/16 05:45:32;;;;;;;15.03;12.70;;;2.90;1.00;;;;;;5058390;28;20466;-41
2021/04/16 05:47:59;;;;;;;16.10;12.57;;;3.10;1.00;;;;;;5059174;28;20469;-42
2021/04/16 05:50:25;;;;;;;13.20;11.77;;;3.20;1.00;;;;;;5067177;28;20461;-42
2021/04/16 05:52:52;;;;;;;13.00;11.10;;;3.20;1.00;;;;;;5079286;28;20485;-42
2021/04/16 05:55:18;;;;;;;14.70;13.10;;;3.30;1.00;;;;;;5073152;28;20834;-42
2021/04/16 05:57:47;;;;;;;15.30;12.80;;;3.50;1.00;;;;;;5079001;28;20515;-42
2021/04/16 06:00:15;;;;;;;13.80;10.80;;;3.50;1.00;;;;;;5072795;28;20496;-43
2021/04/16 06:02:42;;;;;;;12.00;10.70;;;3.70;1.00;;;;;;5076044;28;20477;-42
2021/04/16 06:05:14;;;;;;;12.80;11.40;;;3.80;1.00;;;;;;5077599;28;20466;-43
2021/04/16 06:07:41;;;;;;;12.57;10.30;;;4.00;1.00;;;;;;5073499;28;20776;-43
2021/04/16 06:10:10;;;;;;;14.27;10.13;;;4.10;1.00;;;;;;5077191;28;20837;-42
2021/04/16 06:12:37;;;;;;;16.80;10.30;;;4.40;1.00;;;;;;5074156;28;20890;-43
2021/04/16 06:15:08;;;;;;;13.53;10.37;;;4.60;1.00;;;;;;5078984;28;20440;-44
2021/04/16 06:17:34;;;;;;;11.83;9.87;;;4.70;1.00;;;;;;5076397;28;20511;-44
2021/04/16 06:20:01;;;;;;;12.10;10.90;;;4.80;1.00;;;;;;5078762;28;20482;-47
2021/04/16 06:22:28;;;;;;;19.03;11.20;;;5.00;1.00;;;;;;5073539;28;20462;-43
2021/04/16 06:24:57;;;;;;;16.43;11.10;;;5.30;1.00;;;;;;5078857;28;20759;-44
2021/04/16 06:27:24;;;;;;;10.30;9.30;;;5.60;1.00;;;;;;5069242;28;20894;-43
2021/04/16 06:29:53;;;;;;;12.47;9.60;;;5.80;1.00;;;;;;5077480;28;20457;-45
2021/04/16 06:32:22;;;;;;;13.00;10.33;;;6.10;1.00;;;;;;5059842;28;20469;-43
2021/04/16 06:34:48;;;;;;;10.07;9.00;;;6.40;1.00;;;;;;5058542;28;20497;-44
2021/04/16 06:37:15;;;;;;;14.03;9.60;;;6.50;1.00;;;;;;5060863;28;20462;-43
2021/04/16 06:39:42;;;;;;;10.20;9.17;;;6.50;1.00;;;;;;5071936;28;20465;-49
2021/04/16 06:42:17;;;;;;;12.70;10.00;;;6.50;1.00;;;;;;5059089;28;20458;-44
2021/04/16 06:44:47;;;;;;;12.90;8.17;;;6.80;1.00;;;;;;5072748;28;20465;-44
2021/04/16 06:47:24;;;;;;;10.23;9.13;;;7.30;99.90;;;;;;5077843;28;20514;-43
2021/04/16 06:49:56;;;;;;;10.53;9.00;;;7.50;99.90;;;;;;5072440;28;20475;-43
2021/04/16 06:52:28;;;;;;;10.80;8.63;;;7.80;99.90;;;;;;5076182;28;20547;-44
2021/04/16 06:55:05;;;;;;;12.30;9.63;;;7.90;99.90;;;;;;5063522;28;20486;-45
2021/04/16 06:57:42;;;;;;;10.23;8.23;;;8.00;99.90;;;;;;5074480;28;20452;-44
2021/04/16 07:00:19;;;;;;;8.20;7.40;;;8.20;99.90;;;;;;5073902;28;20476;-47
2021/04/16 07:02:56;;;;;;;12.93;7.80;;;8.10;99.90;;;;;;5072602;28;20871;-46
2021/04/16 07:05:31;;;;;;;11.30;7.90;;;8.50;99.90;;;;;;5073880;28;20475;-47
2021/04/16 07:08:03;;;;;;;8.90;8.00;;;8.80;99.90;;;;;;5072060;28;20453;-47
2021/04/16 07:10:39;;;;;;;8.10;7.40;;;9.20;99.90;;;;;;5078251;28;20460;-44
2021/04/16 07:13:08;;;;;;;7.83;7.13;;;9.40;99.90;;;;;;5072289;28;20491;-44
2021/04/16 07:15:38;;;;;;;7.07;6.37;;;9.20;99.90;;;;;;5077079;28;20462;-44
2021/04/16 07:18:06;;;;;;;9.33;7.07;;;9.00;99.90;;;;;;5072288;28;20469;-46
2021/04/16 07:20:33;;;;;;;9.17;7.73;;;8.60;99.90;;;;;;5076596;28;20468;-45
2021/04/16 07:23:01;;;;;;;8.20;7.40;;;9.30;99.90;;;;;;5060288;28;20512;-45
2021/04/16 07:25:34;;;;;;;8.63;7.43;;;9.70;99.90;;;;;;5059588;28;20462;-44
2021/04/16 07:28:03;;;;;;;7.40;6.70;;;10.00;99.90;;;;;;5057803;28;20477;-43
2021/04/16 07:30:41;;;;;;;10.83;6.80;;;10.00;99.90;;;;;;5060684;28;20462;-46
2021/04/16 07:33:31;;;;;;;7.40;6.70;;;9.50;99.90;;;;;;5056908;28;20500;-44
2021/04/16 07:36:15;;;;;;;6.80;6.20;;;9.30;99.90;;;;;;5066791;28;20900;-52
2021/04/16 07:38:42;;;;;;;6.60;6.00;;;9.20;99.90;;;;;;5074943;28;20461;-48
2021/04/16 07:41:17;;;;;;;6.37;5.77;;;9.10;99.90;;;;;;5060441;28;20454;-44
2021/04/16 07:43:48;;;;;;;6.87;6.17;;;8.90;99.90;;;;;;5056893;28;20450;-44
2021/04/16 07:46:30;;;;;;;7.80;6.50;;;8.80;99.90;;;;;;5075710;28;20461;-44
2021/04/16 07:49:23;;;;;;;6.53;5.93;;;8.70;99.90;;;;;;5071804;28;20458;-45
2021/04/16 07:52:00;;;;;;;6.50;5.77;;;8.70;99.90;;;;;;5058144;28;20760;-46
2021/04/16 07:54:30;;;;;;;8.43;6.30;;;8.90;99.90;;;;;;5074044;28;20493;-44
2021/04/16 07:57:07;;;;;;;11.03;7.37;;;9.00;99.90;;;;;;5077401;28;20920;-45
2021/04/16 07:59:56;;;;;;;7.77;6.97;;;9.20;99.90;;;;;;5067886;28;20461;-44
2021/04/16 08:02:27;;;;;;;8.93;7.03;;;9.30;99.90;;;;;;5070544;28;20481;-48
2021/04/16 08:04:54;;;;;;;6.87;6.27;;;9.70;99.90;;;;;;5069266;28;20461;-48
2021/04/16 08:07:30;;;;;;;8.57;5.83;;;9.80;99.90;;;;;;5074540;28;20453;-44
2021/04/16 08:09:59;;;;;;;6.43;5.83;;;9.70;99.90;;;;;;5076180;28;20460;-43
2021/04/16 08:12:27;;;;;;;7.33;6.00;;;9.80;99.90;;;;;;5074809;28;20511;-47
2021/04/16 08:15:13;;;;;;;10.73;6.87;;;9.60;99.90;;;;;;5075331;28;20489;-43
2021/04/16 08:17:41;;;;;;;7.07;6.33;;;9.30;99.90;;;;;;5071198;28;20457;-46
2021/04/16 08:20:26;;;;;;;7.37;6.67;;;9.00;99.90;;;;;;5076188;28;20439;-46
2021/04/16 08:22:54;;;;;;;8.70;6.47;;;9.30;99.90;;;;;;5075094;28;20462;-44
2021/04/16 08:25:37;;;;;;;7.03;6.23;;;9.40;99.90;;;;;;5070267;28;20481;-46
2021/04/16 08:28:08;;;;;;;8.90;6.43;;;9.40;99.90;;;;;;5076703;28;20461;-44
2021/04/16 08:30:45;;;;;;;9.23;6.53;;;9.60;99.90;;;;;;5068698;28;20457;-44
2021/04/16 08:33:27;;;;;;;10.13;5.87;;;9.70;99.90;;;;;;5069964;28;20492;-46
2021/04/16 08:36:05;;;;;;;6.47;5.37;;;9.80;99.90;;;;;;5061847;28;20466;-51
2021/04/16 08:38:38;;;;;;;6.90;6.10;;;10.30;99.90;;;;;;5060889;28;20465;-43
2021/04/16 09:29:05;;;;;;;6.87;4.70;;;10.30;99.90;;;;;;2344516;23;20493;-42
2021/04/16 09:31:55;;;;;;;4.70;4.30;;;10.50;99.90;;;;;;4997480;28;20480;-42
2021/04/16 09:34:26;;;;;;;5.10;4.60;;;11.40;99.90;;;;;;4996827;28;20492;-42
2021/04/16 09:37:13;;;;;;;4.73;4.30;;;12.30;99.90;;;;;;5000414;28;20527;-42
2021/04/16 09:39:42;;;;;;;5.57;4.83;;;12.70;99.90;;;;;;5000045;28;20475;-48
2021/04/16 09:42:31;;;;;;;5.37;4.97;;;12.40;99.90;;;;;;5000422;28;20469;-42
2021/04/16 09:45:04;;;;;;;5.70;5.00;;;12.50;99.90;;;;;;4999664;28;20912;-42
2021/04/16 09:47:43;;;;;;;4.97;4.60;;;13.40;99.90;;;;;;4999374;28;20468;-47
2021/04/16 09:50:26;;;;;;;5.13;4.60;;;13.80;99.90;;;;;;4999589;28;20465;-48
2021/04/16 09:53:22;;;;;;;6.50;5.17;;;13.70;99.90;;;;;;4999328;28;20471;-46
2021/04/16 09:56:17;;;;;;;4.87;4.47;;;13.40;99.90;;;;;;4999742;28;20747;-42
2021/04/16 09:59:09;;;;;;;5.00;4.50;;;13.90;99.90;;;;;;4999401;28;20472;-44
2021/04/16 10:02:20;;;;;;;5.40;4.33;;;14.40;99.90;;;;;;4999035;28;20468;-49
2021/04/16 10:04:54;;;;;;;7.13;4.97;;;14.50;99.90;;;;;;4993678;28;20519;-47
2021/04/16 10:07:23;;;;;;;5.10;4.47;;;14.70;99.90;;;;;;4998737;28;20905;-43
2021/04/16 10:09:49;;;;;;;4.60;4.20;;;13.30;99.90;;;;;;4998334;28;20494;-47
2021/04/16 10:12:24;;;;;;;5.03;4.67;;;13.90;99.90;;;;;;4998734;28;20905;-43
2021/04/16 10:14:51;;;;;;;4.40;4.10;;;13.90;99.90;;;;;;4985684;28;20499;-44
2021/04/16 10:17:25;;;;;;;5.10;4.57;;;13.30;99.90;;;;;;4999072;28;20792;-43
2021/04/16 10:20:08;;;;;;;5.03;4.13;;;13.60;99.90;;;;;;4998601;28;20758;-49
2021/04/16 10:22:36;;;;;;;6.60;3.90;;;13.50;99.90;;;;;;4999260;28;20465;-47
2021/04/16 12:39:21;;;;;;;3.80;3.50;;;12.90;99.90;;;;;;5012642;28;20911;-45
2021/04/16 12:41:54;;;;;;;4.10;3.60;;;13.30;99.90;;;;;;5000959;28;20464;-44
2021/04/16 12:44:34;;;;;;;3.13;2.93;;;13.50;99.90;;;;;;5005126;28;20471;-41
2021/04/16 12:47:03;;;;;;;7.20;3.13;;;14.40;99.90;;;;;;5020569;28;20467;-47
2021/04/16 12:49:31;;;;;;;3.57;3.10;;;14.40;99.90;;;;;;5006911;28;20465;-48
2021/04/16 12:51:57;;;;;;;3.67;3.37;;;14.90;99.90;;;;;;5000169;28;20468;-44
2021/04/16 12:54:24;;;;;;;4.33;3.93;;;15.20;99.90;;;;;;5003911;28;20493;-48
2021/04/16 12:56:53;;;;;;;4.17;3.80;;;15.10;99.90;;;;;;5000930;28;20539;-46
2021/04/16 12:59:24;;;;;;;3.70;3.40;;;15.40;99.90;;;;;;5015297;28;20471;-47
2021/04/16 13:01:53;;;;;;;3.93;3.63;;;15.70;99.90;;;;;;5005348;28;20479;-43
2021/04/16 13:04:25;;;;;;;4.60;4.20;;;15.40;99.90;;;;;;4996361;28;20527;-43
2021/04/16 13:06:58;;;;;;;6.03;4.60;;;15.50;99.90;;;;;;5004250;28;20815;-43
2021/04/16 13:09:25;;;;;;;6.80;4.73;;;14.90;99.90;;;;;;4999444;28;20469;-46
2021/04/16 13:11:54;;;;;;;6.90;4.53;;;14.50;99.90;;;;;;5002861;28;20520;-49
2021/04/16 13:14:21;;;;;;;4.27;3.90;;;14.90;99.90;;;;;;4999535;28;20492;-44
2021/04/16 13:16:47;;;;;;;8.20;4.70;;;14.50;99.90;;;;;;5003413;28;20469;-43
2021/04/16 13:19:24;;;;;;;4.87;4.40;;;14.40;99.90;;;;;;5000624;28;20472;-43
2021/04/16 13:21:54;;;;;;;4.80;4.30;;;14.10;99.90;;;;;;5003936;28;20960;-45
2021/04/16 13:24:20;;;;;;;4.30;3.90;;;13.50;99.90;;;;;;5000396;28;20869;-46
2021/04/16 13:26:47;;;;;;;4.90;4.30;;;13.80;99.90;;;;;;5003861;28;20527;-46
2021/04/16 13:29:15;;;;;;;5.03;4.70;;;14.60;99.90;;;;;;5000249;28;20496;-46
2021/04/16 13:31:41;;;;;;;4.13;3.80;;;15.00;99.90;;;;;;5002873;28;20469;-44
2021/04/16 13:34:11;;;;;;;5.40;4.90;;;15.30;99.90;;;;;;5002670;28;20492;-43
2021/04/16 13:36:40;;;;;;;5.63;4.77;;;14.60;99.90;;;;;;5000369;28;20465;-43
2021/04/16 13:39:08;;;;;;;4.67;4.30;;;14.10;99.90;;;;;;5003933;28;20888;-42
2021/04/16 13:41:37;;;;;;;4.73;4.30;;;13.90;99.90;;;;;;4999062;28;20472;-44
2021/04/16 13:44:05;;;;;;;4.67;4.27;;;14.00;99.90;;;;;;5003705;28;20772;-44
2021/04/16 13:46:34;;;;;;;4.90;4.50;;;14.40;99.90;;;;;;4999318;28;20523;-49
2021/04/16 13:49:05;;;;;;;7.47;6.87;;;14.90;99.90;;;;;;5003909;28;20460;-44
2021/04/16 13:51:34;;;;;;;5.87;5.47;;;14.90;99.90;;;;;;4999938;28;20475;-49
2021/04/16 13:54:03;;;;;;;5.80;5.30;;;14.60;99.90;;;;;;5003822;28;20578;-42
2021/04/16 13:56:31;;;;;;;6.50;5.90;;;14.50;99.90;;;;;;4998359;28;20560;-43
2021/04/16 13:58:58;;;;;;;5.20;4.53;;;14.50;99.90;;;;;;5015015;28;20480;-46
2021/04/16 14:01:26;;;;;;;5.13;4.73;;;14.10;99.90;;;;;;5017145;28;20510;-45
2021/04/16 14:04:00;;;;;;;5.00;4.70;;;13.80;99.90;;;;;;4997436;28;20561;-43
2021/04/16 14:06:29;;;;;;;4.90;4.50;;;13.40;99.90;;;;;;4999127;28;20535;-44
2021/04/16 14:08:59;;;;;;;5.30;4.90;;;13.00;99.90;;;;;;5017619;28;20594;-42
2021/04/16 14:11:28;;;;;;;4.93;4.40;;;12.80;99.90;;;;;;5012214;28;20476;-43
2021/04/16 14:13:55;;;;;;;5.13;4.50;;;12.30;99.90;;;;;;4998025;28;20489;-48
2021/04/16 14:16:27;;;;;;;5.23;4.77;;;12.70;99.90;;;;;;5007026;28;20468;-43
2021/04/16 14:18:56;;;;;;;4.70;4.30;;;12.70;99.90;;;;;;5003110;28;20465;-41
2021/04/16 14:21:24;;;;;;;9.50;5.00;;;12.60;99.90;;;;;;5008604;28;20916;-42
2021/04/16 14:23:51;;;;;;;4.77;4.37;;;13.10;99.90;;;;;;5019131;28;20464;-42
2021/04/16 14:26:19;;;;;;;5.47;4.50;;;13.60;99.90;;;;;;5003516;28;20465;-42
2021/04/16 14:28:46;;;;;;;5.20;4.70;;;13.80;99.90;;;;;;4992370;28;20504;-42
2021/04/16 14:31:14;;;;;;;5.83;4.70;;;14.40;99.90;;;;;;4983173;28;20778;-43
2021/04/16 14:33:45;;;;;;;5.00;4.60;;;14.70;99.90;;;;;;4982037;28;20489;-44
2021/04/16 14:36:13;;;;;;;5.13;4.80;;;14.10;99.90;;;;;;4980156;28;20891;-43
2021/04/16 14:38:40;;;;;;;5.30;4.90;;;14.10;99.90;;;;;;4982591;28;20945;-43
2021/04/16 14:41:07;;;;;;;5.90;5.20;;;14.50;99.90;;;;;;4992080;28;20469;-43
2021/04/16 14:43:35;;;;;;;5.73;5.20;;;14.00;99.90;;;;;;4985609;28;20472;-45
2021/04/16 14:46:02;;;;;;;5.40;4.90;;;14.00;99.90;;;;;;4988630;28;20481;-44
2021/04/16 14:48:35;;;;;;;5.33;4.70;;;13.90;99.90;;;;;;4986037;28;20469;-43
2021/04/16 14:51:03;;;;;;;5.17;4.73;;;14.40;99.90;;;;;;4989613;28;20465;-43
2021/04/16 14:53:35;;;;;;;6.20;5.53;;;14.50;99.90;;;;;;4982848;28;20469;-43
2021/04/16 14:56:05;;;;;;;5.43;4.73;;;13.70;99.90;;;;;;4978975;28;20469;-46
2021/04/16 14:58:34;;;;;;;5.20;4.70;;;13.70;99.90;;;;;;4988005;28;20461;-42
2021/04/16 15:01:03;;;;;;;5.10;4.70;;;13.70;99.90;;;;;;4982632;28;20774;-45
2021/04/16 15:03:34;;;;;;;3.97;3.67;;;14.00;99.90;;;;;;4975811;28;20772;-48
2021/04/16 15:06:01;;;;;;;5.83;4.70;;;14.50;99.90;;;;;;4979094;28;20529;-43
2021/04/16 15:08:37;;;;;;;5.87;4.50;;;14.70;99.90;;;;;;4990559;28;20552;-42
2021/04/16 15:11:08;;;;;;;6.80;4.20;;;14.50;99.90;;;;;;4986989;28;20471;-49
2021/04/16 15:13:37;;;;;;;4.33;3.97;;;13.50;99.90;;;;;;4978924;28;20458;-45
2021/04/16 15:16:06;;;;;;;4.60;4.20;;;13.00;99.90;;;;;;4982638;28;20953;-49
2021/04/16 15:18:38;;;;;;;5.10;4.57;;;12.50;99.90;;;;;;4978945;28;20466;-43
2021/04/16 15:21:07;;;;;;;6.93;4.67;;;12.60;99.90;;;;;;4986524;28;20472;-48
2021/04/16 15:23:36;;;;;;;4.43;4.13;;;12.40;99.90;;;;;;4979082;28;20768;-41
2021/04/16 15:26:05;;;;;;;5.50;4.87;;;12.60;99.90;;;;;;4979661;28;20957;-43
2021/04/16 15:28:35;;;;;;;5.67;5.00;;;12.60;99.90;;;;;;4983027;28;20558;-42
2021/04/16 15:31:07;;;;;;;4.33;4.03;;;12.60;99.90;;;;;;5002460;28;20475;-42
2021/04/16 15:47:20;;;;;;;4.80;4.30;;;12.50;99.90;;;;;;5006000;28;20436;-48
2021/04/16 15:49:47;;;;;;;5.17;4.77;;;13.00;99.90;;;;;;5006054;28;20832;-46
2021/04/16 15:52:14;;;;;;;5.83;4.27;;;13.30;99.90;;;;;;5004918;28;20464;-42
2021/04/16 15:54:40;;;;;;;5.43;4.93;;;13.10;99.90;;;;;;5003422;28;20877;-42
2021/04/16 15:57:07;;;;;;;4.70;4.40;;;13.10;99.90;;;;;;5009630;28;20791;-42
2021/04/16 15:59:35;;;;;;;4.90;4.50;;;12.70;99.90;;;;;;4996941;28;20476;-44
2021/04/16 16:02:06;;;;;;;4.47;3.70;;;12.40;99.90;;;;;;4997199;28;20773;-42
2021/04/16 16:04:32;;;;;;;4.63;4.33;;;12.20;99.90;;;;;;4998694;28;20472;-43
2021/04/16 16:07:01;;;;;;;5.43;4.73;;;12.20;99.90;;;;;;5011352;28;20465;-43
2021/04/16 16:09:33;;;;;;;5.87;4.97;;;12.00;99.90;;;;;;5003612;28;20479;-42
2021/04/16 16:12:07;;;;;;;5.43;4.90;;;12.30;99.90;;;;;;5004690;28;20473;-43
2021/04/16 16:14:36;;;;;;;5.47;4.27;;;12.70;99.90;;;;;;5003041;28;20496;-44
2021/04/16 16:17:17;;;;;;;4.73;4.37;;;12.90;99.90;;;;;;5001233;28;20469;-42
2021/04/16 16:19:44;;;;;;;5.87;4.23;;;12.70;99.90;;;;;;5005212;28;20884;-45
2021/04/16 16:22:14;;;;;;;4.63;4.23;;;12.90;99.90;;;;;;5010072;28;20473;-42